createdAt,value
2023-01-17T00:00:55.891Z,3.50
2023-01-17T00:05:57.447Z,1.65
2023-01-17T00:10:59.265Z,2.30
2023-01-17T00:16:01.217Z,2.70
2023-01-17T00:21:03.027Z,4.47
2023-01-17T00:26:09.801Z,3.63
2023-01-17T00:31:22.961Z,3.60
2023-01-17T00:36:24.538Z,4.68
2023-01-17T00:41:35.628Z,5.18
2023-01-17T00:46:37.185Z,4.75
2023-01-17T00:51:41.109Z,5.30
2023-01-17T00:56:42.572Z,5.40
2023-01-17T01:01:44.813Z,3.67
2023-01-17T01:06:48.742Z,2.88
2023-01-17T01:11:50.347Z,3.35
2023-01-17T01:16:52.211Z,2.58
2023-01-17T01:21:53.989Z,2.85
2023-01-17T01:26:55.481Z,5.60
2023-01-17T01:31:56.986Z,2.70
2023-01-17T01:36:58.404Z,3.35
2023-01-17T01:41:59.800Z,4.75
2023-01-17T01:47:01.627Z,4.38
2023-01-17T01:52:08.111Z,2.60
2023-01-17T01:57:14.047Z,8.48
2023-01-17T02:02:15.798Z,1.67
2023-01-17T02:07:25.876Z,3.03
2023-01-17T02:12:28.055Z,3.45
2023-01-17T02:17:47.508Z,3.28
2023-01-17T02:23:13.496Z,2.77
2023-01-17T02:28:40.000Z,4.60
2023-01-17T02:34:06.842Z,4.88
2023-01-17T02:39:15.528Z,3.65
2023-01-17T02:44:22.475Z,10.23
2023-01-17T02:49:31.508Z,6.25
2023-01-17T02:54:55.723Z,4.43
2023-01-17T03:00:14.747Z,5.75
2023-01-17T03:05:39.307Z,8.00
2023-01-17T03:10:46.988Z,7.15
2023-01-17T03:15:51.660Z,6.80
2023-01-17T03:20:53.185Z,8.95
2023-01-17T03:25:54.648Z,5.90
2023-01-17T03:30:56.131Z,10.50
2023-01-17T03:35:57.673Z,8.75
2023-01-17T03:40:59.187Z,7.45
2023-01-17T03:46:18.291Z,8.80
2023-01-17T03:51:20.139Z,12.23
2023-01-17T03:56:21.587Z,8.02
2023-01-17T04:01:23.190Z,8.40
2023-01-17T04:06:24.692Z,8.15
2023-01-17T04:11:28.581Z,8.95
2023-01-17T04:16:31.967Z,7.93
2023-01-17T04:21:33.596Z,7.72
2023-01-17T04:26:35.893Z,9.93
2023-01-17T04:31:37.490Z,10.35
2023-01-17T04:36:39.132Z,9.27
2023-01-17T04:41:40.723Z,9.02
2023-01-17T04:46:44.910Z,9.57
2023-01-17T04:51:46.929Z,7.85
2023-01-17T04:56:49.495Z,11.32
2023-01-17T05:01:51.059Z,11.80
2023-01-17T05:06:53.601Z,10.50
2023-01-17T05:11:58.075Z,8.45
2023-01-17T05:16:59.868Z,11.93
2023-01-17T05:22:03.634Z,10.90
2023-01-17T05:27:05.566Z,8.23
2023-01-17T05:32:07.511Z,11.73
2023-01-17T05:37:09.113Z,8.20
2023-01-17T05:42:10.548Z,9.60
2023-01-17T05:47:11.893Z,9.10
2023-01-17T05:52:13.428Z,9.13
2023-01-17T05:57:14.910Z,11.57
2023-01-17T06:02:16.540Z,10.15
2023-01-17T06:07:18.587Z,10.80
2023-01-17T06:12:28.791Z,8.82
2023-01-17T06:22:31.760Z,13.52
2023-01-17T06:27:33.206Z,8.65
2023-01-17T06:32:34.915Z,9.55
2023-01-17T06:37:36.656Z,8.68
2023-01-17T06:43:13.554Z,10.57
2023-01-17T06:48:31.554Z,7.97
2023-01-17T06:53:35.977Z,13.05
2023-01-17T06:58:37.414Z,10.80
2023-01-17T07:03:39.994Z,13.70
2023-01-17T07:08:44.442Z,8.65
2023-01-17T07:13:46.306Z,12.02
2023-01-17T07:18:50.933Z,11.32
2023-01-17T07:23:52.390Z,12.80
2023-01-17T07:28:53.753Z,10.80
2023-01-17T07:33:55.245Z,14.02
2023-01-17T07:38:56.782Z,10.40
2023-01-17T07:43:59.423Z,10.73
2023-01-17T07:49:01.115Z,11.77
2023-01-17T07:54:02.505Z,16.27
2023-01-17T07:59:03.847Z,9.60
2023-01-17T08:04:05.461Z,10.57
2023-01-17T08:09:06.897Z,11.88
2023-01-17T08:14:09.597Z,18.88
2023-01-17T08:19:30.293Z,10.02
2023-01-17T08:24:31.737Z,12.23
2023-01-17T08:29:33.269Z,13.02
2023-01-17T08:39:36.397Z,24.52
2023-01-17T08:44:38.101Z,19.60
2023-01-17T08:54:41.197Z,16.52
2023-01-17T08:59:48.696Z,18.52
2023-01-17T09:04:50.728Z,14.48
2023-01-17T09:09:52.800Z,22.95
2023-01-17T09:14:54.648Z,11.43
2023-01-17T09:19:56.019Z,12.85
2023-01-17T09:24:57.596Z,11.35
2023-01-17T09:29:59.049Z,10.05
2023-01-17T09:35:00.439Z,12.10
2023-01-17T09:45:04.042Z,11.10
2023-01-17T09:50:25.154Z,9.45
2023-01-17T09:55:32.157Z,9.32
2023-01-17T10:06:08.362Z,9.52
2023-01-17T10:11:30.818Z,8.98
2023-01-17T10:17:12.355Z,11.65
2023-01-17T10:22:38.547Z,9.68
2023-01-17T10:28:02.451Z,10.48
2023-01-17T10:33:12.587Z,12.13
2023-01-17T10:38:15.424Z,9.10
2023-01-17T10:48:47.451Z,10.85
2023-01-17T10:53:54.529Z,10.95
2023-01-17T10:59:18.710Z,12.60
2023-01-17T11:04:23.717Z,9.93
2023-01-17T11:09:39.452Z,8.60
2023-01-17T11:19:42.585Z,7.38
2023-01-17T11:24:55.156Z,12.38
2023-01-17T11:30:18.423Z,10.73
2023-01-17T11:35:21.154Z,9.18
2023-01-17T11:40:30.880Z,11.95
2023-01-17T11:45:34.380Z,10.80
2023-01-17T11:50:38.872Z,7.88
2023-01-17T11:55:40.357Z,11.45
2023-01-17T12:00:46.045Z,10.50
2023-01-17T12:05:55.880Z,7.55
2023-01-17T12:11:13.604Z,8.65
2023-01-17T12:16:23.910Z,9.25
2023-01-17T12:21:43.966Z,13.45
2023-01-17T12:32:11.696Z,7.10
2023-01-17T12:37:28.801Z,8.85
2023-01-17T12:52:59.190Z,6.88
2023-01-17T13:03:19.775Z,8.75
2023-01-17T13:08:31.640Z,8.40
2023-01-17T13:13:34.307Z,8.93
2023-01-17T13:34:20.964Z,9.95
2023-01-17T13:39:51.925Z,10.05
2023-01-17T13:44:53.676Z,6.03
2023-01-17T13:49:55.186Z,6.25
2023-01-17T14:00:23.346Z,10.07
2023-01-17T14:05:31.113Z,7.78
2023-01-17T14:10:42.913Z,5.30
2023-01-17T14:15:51.218Z,5.45
2023-01-17T14:21:19.997Z,8.27
2023-01-17T14:26:39.744Z,5.03
2023-01-17T14:31:41.660Z,6.75
2023-01-17T14:41:45.615Z,5.63
2023-01-17T14:46:48.954Z,3.78
2023-01-17T14:52:08.435Z,11.50
2023-01-17T14:57:32.548Z,6.43
2023-01-17T15:07:41.075Z,4.30
2023-01-17T15:12:43.592Z,4.03
2023-01-17T15:17:45.373Z,5.10
2023-01-17T15:32:56.545Z,5.60
2023-01-17T15:37:58.039Z,4.70
2023-01-17T15:43:00.006Z,14.18
2023-01-17T15:48:43.711Z,10.35
2023-01-17T15:53:45.456Z,18.63
2023-01-17T15:58:48.436Z,14.52
2023-01-17T16:03:55.291Z,13.93
2023-01-17T16:13:58.337Z,13.70
2023-01-17T16:19:01.545Z,11.95
2023-01-17T16:29:04.825Z,11.25
2023-01-17T16:34:12.440Z,9.80
2023-01-17T16:39:14.048Z,12.55
2023-01-17T16:44:15.573Z,13.38
2023-01-17T16:49:17.051Z,14.63
2023-01-17T16:54:20.891Z,13.80
2023-01-17T17:04:26.894Z,13.35
2023-01-17T17:09:28.293Z,11.52
2023-01-17T17:14:29.838Z,14.57
2023-01-17T17:19:31.344Z,12.20
2023-01-17T17:24:32.764Z,12.48
2023-01-17T17:29:34.285Z,10.82
2023-01-17T17:34:36.183Z,12.68
2023-01-17T17:39:38.808Z,14.93
2023-01-17T17:44:40.233Z,11.70
2023-01-17T17:49:42.079Z,12.38
2023-01-17T17:54:48.079Z,13.00
2023-01-17T17:59:49.541Z,13.25
2023-01-17T18:04:51.096Z,12.80
2023-01-17T18:09:52.522Z,16.27
2023-01-17T18:14:54.000Z,13.75
2023-01-17T18:19:57.213Z,13.38
2023-01-17T18:24:58.680Z,15.20
2023-01-17T18:30:00.173Z,13.95
2023-01-17T18:35:01.772Z,12.30
2023-01-17T18:40:03.344Z,17.27
2023-01-17T18:45:05.342Z,13.93
2023-01-17T18:50:06.920Z,13.85
2023-01-17T18:55:08.718Z,16.13
2023-01-17T19:00:10.786Z,16.65
2023-01-17T19:05:12.279Z,26.63
2023-01-17T19:10:13.811Z,29.88
2023-01-17T19:15:15.287Z,30.85
2023-01-17T19:20:16.791Z,36.03
2023-01-17T19:25:18.359Z,26.52
2023-01-17T19:30:20.895Z,23.85
2023-01-17T19:35:23.281Z,17.25
2023-01-17T19:40:24.721Z,17.38
2023-01-17T19:45:26.223Z,13.23
2023-01-17T19:50:27.673Z,14.55
2023-01-17T19:55:29.324Z,16.35
2023-01-17T20:00:30.919Z,12.77
2023-01-17T20:05:33.527Z,16.52
2023-01-17T20:10:35.085Z,18.30
2023-01-17T20:15:36.532Z,17.33
2023-01-17T20:20:46.105Z,22.35
2023-01-17T20:25:57.542Z,17.40
2023-01-17T20:36:12.548Z,20.65
2023-01-17T20:41:14.085Z,23.13
2023-01-17T20:46:16.777Z,17.80
2023-01-17T20:51:19.757Z,22.38
2023-01-17T20:56:21.389Z,19.83
2023-01-17T21:01:23.314Z,20.73
2023-01-17T21:06:24.911Z,19.00
2023-01-17T21:11:29.879Z,16.40
2023-01-17T21:16:32.877Z,21.20
2023-01-17T21:21:34.350Z,21.65
2023-01-17T21:26:35.876Z,25.05
2023-01-17T21:31:40.747Z,23.20
2023-01-17T21:36:43.032Z,20.20
2023-01-17T21:41:48.494Z,25.50
2023-01-17T21:46:50.283Z,20.08
2023-01-17T21:51:51.788Z,21.58
2023-01-17T21:56:53.149Z,18.77
2023-01-17T22:01:54.667Z,20.38
2023-01-17T22:06:56.194Z,25.27
2023-01-17T22:11:58.646Z,17.15
2023-01-17T22:17:00.125Z,19.80
2023-01-17T22:22:01.553Z,18.98
2023-01-17T22:27:03.325Z,15.65
2023-01-17T22:32:05.602Z,22.23
2023-01-17T22:37:07.033Z,25.00
2023-01-17T22:42:08.555Z,16.65
2023-01-17T22:47:10.105Z,20.80
2023-01-17T22:52:11.688Z,31.67
2023-01-17T22:57:13.131Z,42.75
2023-01-17T23:02:16.572Z,35.30
2023-01-17T23:07:18.291Z,19.13
2023-01-17T23:12:19.805Z,25.38
2023-01-17T23:17:22.981Z,27.13
2023-01-17T23:22:27.604Z,23.20
2023-01-17T23:27:37.570Z,26.02
2023-01-17T23:32:40.805Z,20.48
2023-01-17T23:37:42.597Z,21.98
2023-01-17T23:42:44.164Z,24.25
2023-01-17T23:47:45.719Z,23.73
2023-01-17T23:52:47.209Z,22.90
2023-01-17T23:57:51.087Z,23.42
